sensor_id;sensor_type;location;lat;lon;timestamp;P1;durP1;ratioP1;P2;durP2;ratioP2
24567;SDS011;12731;52.182;8.716;2022-09-16T00:01:30;4.75;;;1.35;;
24567;SDS011;12731;52.182;8.716;2022-09-16T00:03:56;5.18;;;1.63;;
24567;SDS011;12731;52.182;8.716;2022-09-16T00:06:23;5.25;;;1.35;;
24567;SDS011;12731;52.182;8.716;2022-09-16T00:08:53;5.88;;;1.77;;
24567;SDS011;12731;52.182;8.716;2022-09-16T00:11:20;8.32;;;1.80;;
24567;SDS011;12731;52.182;8.716;2022-09-16T00:13:47;7.03;;;1.85;;
24567;SDS011;12731;52.182;8.716;2022-09-16T00:16:18;5.50;;;1.80;;
24567;SDS011;12731;52.182;8.716;2022-09-16T00:18:46;4.75;;;1.83;;
24567;SDS011;12731;52.182;8.716;2022-09-16T00:21:12;6.78;;;1.70;;
24567;SDS011;12731;52.182;8.716;2022-09-16T00:23:38;4.75;;;1.65;;
24567;SDS011;12731;52.182;8.716;2022-09-16T00:26:05;5.53;;;2.10;;
24567;SDS011;12731;52.182;8.716;2022-09-16T00:28:31;5.50;;;1.88;;
24567;SDS011;12731;52.182;8.716;2022-09-16T00:30:58;5.72;;;2.35;;
24567;SDS011;12731;52.182;8.716;2022-09-16T00:33:25;5.78;;;2.35;;
24567;SDS011;12731;52.182;8.716;2022-09-16T00:36:10;5.72;;;2.50;;
24567;SDS011;12731;52.182;8.716;2022-09-16T00:38:38;5.15;;;2.30;;
24567;SDS011;12731;52.182;8.716;2022-09-16T00:41:05;5.95;;;2.25;;
24567;SDS011;12731;52.182;8.716;2022-09-16T00:43:53;7.05;;;2.80;;
24567;SDS011;12731;52.182;8.716;2022-09-16T00:46:44;4.10;;;2.53;;
24567;SDS011;12731;52.182;8.716;2022-09-16T00:49:24;3.95;;;2.83;;
24567;SDS011;12731;52.182;8.716;2022-09-16T00:51:52;4.93;;;2.75;;
24567;SDS011;12731;52.182;8.716;2022-09-16T00:54:21;7.05;;;2.70;;
24567;SDS011;12731;52.182;8.716;2022-09-16T00:56:52;5.18;;;2.80;;
24567;SDS011;12731;52.182;8.716;2022-09-16T00:59:23;7.85;;;2.90;;
24567;SDS011;12731;52.182;8.716;2022-09-16T01:02:15;5.70;;;2.72;;
24567;SDS011;12731;52.182;8.716;2022-09-16T01:04:43;8.43;;;2.65;;
24567;SDS011;12731;52.182;8.716;2022-09-16T01:07:12;4.63;;;2.80;;
24567;SDS011;12731;52.182;8.716;2022-09-16T01:09:40;6.88;;;2.50;;
24567;SDS011;12731;52.182;8.716;2022-09-16T01:12:06;7.15;;;2.85;;
24567;SDS011;12731;52.182;8.716;2022-09-16T01:14:33;5.57;;;3.22;;
24567;SDS011;12731;52.182;8.716;2022-09-16T01:25:52;8.13;;;3.20;;
24567;SDS011;12731;52.182;8.716;2022-09-16T01:34:48;4.30;;;2.85;;
24567;SDS011;12731;52.182;8.716;2022-09-16T01:37:33;5.95;;;3.38;;
24567;SDS011;12731;52.182;8.716;2022-09-16T01:40:07;5.85;;;3.30;;
24567;SDS011;12731;52.182;8.716;2022-09-16T01:42:38;5.70;;;3.10;;
24567;SDS011;12731;52.182;8.716;2022-09-16T01:50:46;8.55;;;3.53;;
24567;SDS011;12731;52.182;8.716;2022-09-16T01:53:54;5.70;;;3.13;;
24567;SDS011;12731;52.182;8.716;2022-09-16T01:56:36;6.60;;;3.13;;
24567;SDS011;12731;52.182;8.716;2022-09-16T01:59:20;5.38;;;3.35;;
24567;SDS011;12731;52.182;8.716;2022-09-16T02:02:25;7.18;;;3.33;;
24567;SDS011;12731;52.182;8.716;2022-09-16T02:04:52;5.25;;;3.70;;
24567;SDS011;12731;52.182;8.716;2022-09-16T02:07:23;5.55;;;3.50;;
24567;SDS011;12731;52.182;8.716;2022-09-16T02:09:54;5.68;;;3.35;;
24567;SDS011;12731;52.182;8.716;2022-09-16T02:12:28;4.72;;;3.40;;
24567;SDS011;12731;52.182;8.716;2022-09-16T02:14:58;4.72;;;3.20;;
24567;SDS011;12731;52.182;8.716;2022-09-16T02:17:29;8.30;;;3.30;;
24567;SDS011;12731;52.182;8.716;2022-09-16T02:19:59;4.68;;;3.17;;
24567;SDS011;12731;52.182;8.716;2022-09-16T02:22:38;5.78;;;3.00;;
24567;SDS011;12731;52.182;8.716;2022-09-16T02:25:06;8.95;;;3.30;;
24567;SDS011;12731;52.182;8.716;2022-09-16T02:27:34;7.60;;;3.10;;
24567;SDS011;12731;52.182;8.716;2022-09-16T02:30:02;5.32;;;3.20;;
24567;SDS011;12731;52.182;8.716;2022-09-16T02:32:32;6.70;;;3.08;;
24567;SDS011;12731;52.182;8.716;2022-09-16T02:34:59;6.43;;;3.25;;
24567;SDS011;12731;52.182;8.716;2022-09-16T02:37:29;5.72;;;3.17;;
24567;SDS011;12731;52.182;8.716;2022-09-16T02:40:03;6.30;;;3.05;;
24567;SDS011;12731;52.182;8.716;2022-09-16T02:42:32;5.70;;;2.78;;
24567;SDS011;12731;52.182;8.716;2022-09-16T02:44:59;8.85;;;3.13;;
24567;SDS011;12731;52.182;8.716;2022-09-16T02:47:28;5.35;;;3.15;;
24567;SDS011;12731;52.182;8.716;2022-09-16T02:50:07;6.28;;;3.65;;
24567;SDS011;12731;52.182;8.716;2022-09-16T02:58:04;5.97;;;3.00;;
24567;SDS011;12731;52.182;8.716;2022-09-16T03:00:36;9.02;;;2.90;;
24567;SDS011;12731;52.182;8.716;2022-09-16T03:03:05;6.55;;;3.15;;
24567;SDS011;12731;52.182;8.716;2022-09-16T03:05:32;10.93;;;3.00;;
24567;SDS011;12731;52.182;8.716;2022-09-16T03:07:58;3.70;;;2.40;;
24567;SDS011;12731;52.182;8.716;2022-09-16T03:10:32;6.03;;;2.45;;
24567;SDS011;12731;52.182;8.716;2022-09-16T03:13:05;5.57;;;3.03;;
24567;SDS011;12731;52.182;8.716;2022-09-16T03:24:38;6.45;;;3.17;;
24567;SDS011;12731;52.182;8.716;2022-09-16T03:27:11;6.93;;;2.80;;
24567;SDS011;12731;52.182;8.716;2022-09-16T03:29:50;7.47;;;2.67;;
24567;SDS011;12731;52.182;8.716;2022-09-16T03:32:29;5.70;;;2.92;;
24567;SDS011;12731;52.182;8.716;2022-09-16T03:35:11;8.45;;;3.35;;
24567;SDS011;12731;52.182;8.716;2022-09-16T03:40:27;5.03;;;3.20;;
24567;SDS011;12731;52.182;8.716;2022-09-16T03:42:56;5.40;;;2.92;;
24567;SDS011;12731;52.182;8.716;2022-09-16T03:45:23;5.53;;;3.45;;
24567;SDS011;12731;52.182;8.716;2022-09-16T03:47:50;6.78;;;3.20;;
24567;SDS011;12731;52.182;8.716;2022-09-16T03:50:18;6.30;;;3.85;;
24567;SDS011;12731;52.182;8.716;2022-09-16T03:52:47;7.35;;;3.50;;
24567;SDS011;12731;52.182;8.716;2022-09-16T03:55:13;7.43;;;3.45;;
24567;SDS011;12731;52.182;8.716;2022-09-16T03:57:42;6.03;;;3.50;;
24567;SDS011;12731;52.182;8.716;2022-09-16T04:00:08;8.82;;;4.20;;
24567;SDS011;12731;52.182;8.716;2022-09-16T04:02:35;8.50;;;3.80;;
24567;SDS011;12731;52.182;8.716;2022-09-16T04:05:02;8.57;;;3.95;;
24567;SDS011;12731;52.182;8.716;2022-09-16T04:07:30;7.97;;;3.70;;
24567;SDS011;12731;52.182;8.716;2022-09-16T04:09:58;7.93;;;3.72;;
24567;SDS011;12731;52.182;8.716;2022-09-16T04:12:24;7.80;;;3.42;;
24567;SDS011;12731;52.182;8.716;2022-09-16T04:14:51;6.50;;;3.50;;
24567;SDS011;12731;52.182;8.716;2022-09-16T04:17:17;7.88;;;3.45;;
24567;SDS011;12731;52.182;8.716;2022-09-16T04:19:44;5.38;;;3.33;;
24567;SDS011;12731;52.182;8.716;2022-09-16T04:22:10;9.02;;;3.55;;
24567;SDS011;12731;52.182;8.716;2022-09-16T04:24:36;8.20;;;3.58;;
24567;SDS011;12731;52.182;8.716;2022-09-16T04:27:03;11.02;;;3.13;;
24567;SDS011;12731;52.182;8.716;2022-09-16T04:29:29;6.38;;;3.30;;
24567;SDS011;12731;52.182;8.716;2022-09-16T04:31:57;8.43;;;3.35;;
24567;SDS011;12731;52.182;8.716;2022-09-16T04:34:26;4.20;;;2.85;;
24567;SDS011;12731;52.182;8.716;2022-09-16T04:36:53;5.90;;;2.75;;
24567;SDS011;12731;52.182;8.716;2022-09-16T04:39:19;8.02;;;3.20;;
24567;SDS011;12731;52.182;8.716;2022-09-16T04:41:46;6.85;;;2.95;;
24567;SDS011;12731;52.182;8.716;2022-09-16T04:44:12;5.88;;;2.67;;
24567;SDS011;12731;52.182;8.716;2022-09-16T04:46:40;7.15;;;2.88;;
24567;SDS011;12731;52.182;8.716;2022-09-16T04:49:06;4.43;;;2.45;;
24567;SDS011;12731;52.182;8.716;2022-09-16T04:51:33;6.40;;;2.90;;
24567;SDS011;12731;52.182;8.716;2022-09-16T04:53:59;9.07;;;2.60;;
24567;SDS011;12731;52.182;8.716;2022-09-16T04:56:27;5.75;;;2.50;;
24567;SDS011;12731;52.182;8.716;2022-09-16T04:58:57;4.35;;;2.53;;
24567;SDS011;12731;52.182;8.716;2022-09-16T05:01:29;7.90;;;2.67;;
24567;SDS011;12731;52.182;8.716;2022-09-16T05:03:57;4.90;;;2.47;;
24567;SDS011;12731;52.182;8.716;2022-09-16T05:06:26;4.72;;;2.47;;
24567;SDS011;12731;52.182;8.716;2022-09-16T05:08:57;6.80;;;2.80;;
24567;SDS011;12731;52.182;8.716;2022-09-16T05:11:26;5.53;;;2.70;;
24567;SDS011;12731;52.182;8.716;2022-09-16T05:14:00;6.70;;;2.42;;
24567;SDS011;12731;52.182;8.716;2022-09-16T05:16:28;5.28;;;2.38;;
24567;SDS011;12731;52.182;8.716;2022-09-16T05:18:55;8.05;;;2.75;;
24567;SDS011;12731;52.182;8.716;2022-09-16T05:21:24;4.82;;;2.60;;
24567;SDS011;12731;52.182;8.716;2022-09-16T05:23:51;7.32;;;2.42;;
24567;SDS011;12731;52.182;8.716;2022-09-16T05:26:22;5.25;;;2.45;;
24567;SDS011;12731;52.182;8.716;2022-09-16T05:28:50;4.40;;;2.70;;
24567;SDS011;12731;52.182;8.716;2022-09-16T05:31:21;8.85;;;2.53;;
24567;SDS011;12731;52.182;8.716;2022-09-16T05:33:52;7.55;;;2.80;;
24567;SDS011;12731;52.182;8.716;2022-09-16T05:36:21;4.38;;;2.97;;
24567;SDS011;12731;52.182;8.716;2022-09-16T05:38:47;7.35;;;2.92;;
24567;SDS011;12731;52.182;8.716;2022-09-16T05:41:34;9.93;;;3.38;;
24567;SDS011;12731;52.182;8.716;2022-09-16T05:44:00;6.43;;;2.95;;
24567;SDS011;12731;52.182;8.716;2022-09-16T05:46:27;6.80;;;2.90;;
24567;SDS011;12731;52.182;8.716;2022-09-16T05:48:54;6.30;;;2.67;;
24567;SDS011;12731;52.182;8.716;2022-09-16T05:51:21;4.45;;;2.65;;
24567;SDS011;12731;52.182;8.716;2022-09-16T05:53:49;7.90;;;3.40;;
24567;SDS011;12731;52.182;8.716;2022-09-16T05:56:17;8.95;;;3.38;;
24567;SDS011;12731;52.182;8.716;2022-09-16T05:58:45;6.63;;;3.30;;
24567;SDS011;12731;52.182;8.716;2022-09-16T06:01:13;6.22;;;2.78;;
24567;SDS011;12731;52.182;8.716;2022-09-16T06:03:42;7.35;;;3.40;;
24567;SDS011;12731;52.182;8.716;2022-09-16T06:06:13;5.28;;;3.38;;
24567;SDS011;12731;52.182;8.716;2022-09-16T06:08:51;8.23;;;3.70;;
24567;SDS011;12731;52.182;8.716;2022-09-16T06:11:18;5.07;;;3.70;;
24567;SDS011;12731;52.182;8.716;2022-09-16T06:13:45;8.35;;;3.75;;
24567;SDS011;12731;52.182;8.716;2022-09-16T06:16:12;8.73;;;3.80;;
24567;SDS011;12731;52.182;8.716;2022-09-16T06:18:39;5.85;;;3.58;;
24567;SDS011;12731;52.182;8.716;2022-09-16T06:21:07;7.75;;;3.67;;
24567;SDS011;12731;52.182;8.716;2022-09-16T06:23:36;7.43;;;4.05;;
24567;SDS011;12731;52.182;8.716;2022-09-16T06:26:04;9.00;;;4.43;;
24567;SDS011;12731;52.182;8.716;2022-09-16T06:28:32;8.75;;;4.43;;
24567;SDS011;12731;52.182;8.716;2022-09-16T06:31:12;7.10;;;4.07;;
24567;SDS011;12731;52.182;8.716;2022-09-16T06:33:40;11.95;;;3.88;;
24567;SDS011;12731;52.182;8.716;2022-09-16T06:36:08;7.78;;;4.35;;
24567;SDS011;12731;52.182;8.716;2022-09-16T06:38:35;7.18;;;3.30;;
24567;SDS011;12731;52.182;8.716;2022-09-16T06:41:03;8.93;;;3.80;;
24567;SDS011;12731;52.182;8.716;2022-09-16T06:43:31;6.45;;;3.30;;
24567;SDS011;12731;52.182;8.716;2022-09-16T06:46:02;10.30;;;3.83;;
24567;SDS011;12731;52.182;8.716;2022-09-16T06:48:35;6.20;;;3.58;;
24567;SDS011;12731;52.182;8.716;2022-09-16T06:51:04;5.55;;;3.50;;
24567;SDS011;12731;52.182;8.716;2022-09-16T06:53:33;7.47;;;3.17;;
24567;SDS011;12731;52.182;8.716;2022-09-16T06:56:00;4.47;;;2.97;;
24567;SDS011;12731;52.182;8.716;2022-09-16T06:58:32;6.95;;;2.92;;
24567;SDS011;12731;52.182;8.716;2022-09-16T07:01:06;6.75;;;2.53;;
24567;SDS011;12731;52.182;8.716;2022-09-16T07:03:36;6.05;;;3.15;;
24567;SDS011;12731;52.182;8.716;2022-09-16T07:06:03;5.60;;;3.08;;
24567;SDS011;12731;52.182;8.716;2022-09-16T07:08:30;5.15;;;2.65;;
24567;SDS011;12731;52.182;8.716;2022-09-16T07:10:57;7.97;;;2.90;;
24567;SDS011;12731;52.182;8.716;2022-09-16T07:13:25;4.13;;;3.08;;
24567;SDS011;12731;52.182;8.716;2022-09-16T07:15:52;6.63;;;2.95;;
24567;SDS011;12731;52.182;8.716;2022-09-16T07:18:38;4.38;;;2.40;;
24567;SDS011;12731;52.182;8.716;2022-09-16T07:21:17;4.25;;;2.53;;
24567;SDS011;12731;52.182;8.716;2022-09-16T07:23:45;5.13;;;2.58;;
24567;SDS011;12731;52.182;8.716;2022-09-16T07:26:13;5.47;;;2.55;;
24567;SDS011;12731;52.182;8.716;2022-09-16T07:28:44;10.25;;;2.65;;
24567;SDS011;12731;52.182;8.716;2022-09-16T07:31:13;5.35;;;2.78;;
24567;SDS011;12731;52.182;8.716;2022-09-16T07:33:42;6.22;;;3.08;;
24567;SDS011;12731;52.182;8.716;2022-09-16T07:36:11;8.65;;;2.97;;
24567;SDS011;12731;52.182;8.716;2022-09-16T07:38:38;6.43;;;2.63;;
24567;SDS011;12731;52.182;8.716;2022-09-16T07:41:05;5.88;;;2.80;;
24567;SDS011;12731;52.182;8.716;2022-09-16T07:43:33;7.93;;;2.80;;
24567;SDS011;12731;52.182;8.716;2022-09-16T07:46:01;9.75;;;3.05;;
24567;SDS011;12731;52.182;8.716;2022-09-16T07:48:28;6.57;;;2.88;;
24567;SDS011;12731;52.182;8.716;2022-09-16T07:51:01;6.22;;;2.70;;
24567;SDS011;12731;52.182;8.716;2022-09-16T07:53:32;6.22;;;2.50;;
24567;SDS011;12731;52.182;8.716;2022-09-16T07:56:03;6.30;;;2.53;;
24567;SDS011;12731;52.182;8.716;2022-09-16T07:58:34;6.70;;;2.30;;
24567;SDS011;12731;52.182;8.716;2022-09-16T08:01:01;8.02;;;2.60;;
24567;SDS011;12731;52.182;8.716;2022-09-16T08:03:37;6.97;;;2.20;;
24567;SDS011;12731;52.182;8.716;2022-09-16T08:06:05;7.78;;;2.25;;
24567;SDS011;12731;52.182;8.716;2022-09-16T08:08:36;6.80;;;2.17;;
24567;SDS011;12731;52.182;8.716;2022-09-16T08:11:02;3.90;;;2.13;;
24567;SDS011;12731;52.182;8.716;2022-09-16T08:13:30;6.07;;;2.17;;
24567;SDS011;12731;52.182;8.716;2022-09-16T08:16:01;5.88;;;2.30;;
24567;SDS011;12731;52.182;8.716;2022-09-16T08:18:29;5.97;;;1.92;;
24567;SDS011;12731;52.182;8.716;2022-09-16T08:20:56;4.32;;;1.42;;
24567;SDS011;12731;52.182;8.716;2022-09-16T08:23:24;6.88;;;2.05;;
24567;SDS011;12731;52.182;8.716;2022-09-16T08:25:56;4.25;;;1.50;;
24567;SDS011;12731;52.182;8.716;2022-09-16T08:28:23;5.63;;;1.67;;
24567;SDS011;12731;52.182;8.716;2022-09-16T08:30:50;6.78;;;1.50;;
24567;SDS011;12731;52.182;8.716;2022-09-16T08:33:18;5.82;;;1.70;;
24567;SDS011;12731;52.182;8.716;2022-09-16T08:35:55;6.25;;;1.65;;
24567;SDS011;12731;52.182;8.716;2022-09-16T08:38:23;6.18;;;1.65;;
24567;SDS011;12731;52.182;8.716;2022-09-16T08:40:49;4.47;;;1.40;;
24567;SDS011;12731;52.182;8.716;2022-09-16T08:43:43;5.22;;;1.40;;
24567;SDS011;12731;52.182;8.716;2022-09-16T08:46:22;5.35;;;1.48;;
24567;SDS011;12731;52.182;8.716;2022-09-16T08:49:31;5.50;;;1.50;;
24567;SDS011;12731;52.182;8.716;2022-09-16T08:52:01;5.32;;;1.40;;
24567;SDS011;12731;52.182;8.716;2022-09-16T08:54:31;6.93;;;1.58;;
24567;SDS011;12731;52.182;8.716;2022-09-16T08:57:03;6.70;;;1.63;;
24567;SDS011;12731;52.182;8.716;2022-09-16T08:59:42;4.72;;;1.67;;
24567;SDS011;12731;52.182;8.716;2022-09-16T09:02:36;7.93;;;1.95;;
24567;SDS011;12731;52.182;8.716;2022-09-16T09:05:13;4.68;;;1.27;;
24567;SDS011;12731;52.182;8.716;2022-09-16T09:08:08;5.30;;;1.45;;
24567;SDS011;12731;52.182;8.716;2022-09-16T09:10:46;8.45;;;1.80;;
24567;SDS011;12731;52.182;8.716;2022-09-16T09:13:28;7.85;;;1.40;;
24567;SDS011;12731;52.182;8.716;2022-09-16T09:19:16;9.10;;;1.60;;
24567;SDS011;12731;52.182;8.716;2022-09-16T09:30:23;9.57;;;1.40;;
24567;SDS011;12731;52.182;8.716;2022-09-16T09:38:37;12.40;;;2.95;;
24567;SDS011;12731;52.182;8.716;2022-09-16T09:41:08;7.07;;;1.48;;
24567;SDS011;12731;52.182;8.716;2022-09-16T09:43:52;8.32;;;1.30;;
24567;SDS011;12731;52.182;8.716;2022-09-16T09:46:33;9.45;;;1.73;;
24567;SDS011;12731;52.182;8.716;2022-09-16T09:49:04;6.25;;;1.02;;
24567;SDS011;12731;52.182;8.716;2022-09-16T09:51:36;7.53;;;1.45;;
24567;SDS011;12731;52.182;8.716;2022-09-16T10:02:19;9.63;;;1.40;;
24567;SDS011;12731;52.182;8.716;2022-09-16T10:04:46;3.17;;;1.10;;
24567;SDS011;12731;52.182;8.716;2022-09-16T10:07:17;6.40;;;1.40;;
24567;SDS011;12731;52.182;8.716;2022-09-16T10:12:33;8.13;;;1.25;;
24567;SDS011;12731;52.182;8.716;2022-09-16T10:15:01;6.30;;;1.15;;
24567;SDS011;12731;52.182;8.716;2022-09-16T10:17:29;6.30;;;1.65;;
24567;SDS011;12731;52.182;8.716;2022-09-16T10:20:01;8.13;;;1.30;;
24567;SDS011;12731;52.182;8.716;2022-09-16T10:22:32;7.15;;;1.17;;
24567;SDS011;12731;52.182;8.716;2022-09-16T10:25:00;6.38;;;0.95;;
24567;SDS011;12731;52.182;8.716;2022-09-16T10:30:17;7.85;;;1.40;;
24567;SDS011;12731;52.182;8.716;2022-09-16T10:32:55;5.20;;;1.13;;
24567;SDS011;12731;52.182;8.716;2022-09-16T10:35:26;9.70;;;1.50;;
24567;SDS011;12731;52.182;8.716;2022-09-16T10:40:38;6.75;;;1.20;;
24567;SDS011;12731;52.182;8.716;2022-09-16T10:43:19;8.13;;;1.58;;
24567;SDS011;12731;52.182;8.716;2022-09-16T10:45:47;3.65;;;1.05;;
24567;SDS011;12731;52.182;8.716;2022-09-16T10:48:17;6.88;;;1.30;;
24567;SDS011;12731;52.182;8.716;2022-09-16T10:50:55;8.07;;;1.40;;
24567;SDS011;12731;52.182;8.716;2022-09-16T10:53:36;7.63;;;1.55;;
24567;SDS011;12731;52.182;8.716;2022-09-16T10:56:28;5.65;;;1.35;;
24567;SDS011;12731;52.182;8.716;2022-09-16T10:59:07;8.27;;;1.38;;
24567;SDS011;12731;52.182;8.716;2022-09-16T11:04:55;4.28;;;1.10;;
24567;SDS011;12731;52.182;8.716;2022-09-16T11:10:14;5.65;;;1.23;;
24567;SDS011;12731;52.182;8.716;2022-09-16T11:15:34;7.03;;;1.10;;
24567;SDS011;12731;52.182;8.716;2022-09-16T11:18:18;4.63;;;1.38;;
24567;SDS011;12731;52.182;8.716;2022-09-16T11:25:55;7.97;;;1.20;;
24567;SDS011;12731;52.182;8.716;2022-09-16T11:34:29;7.40;;;1.35;;
24567;SDS011;12731;52.182;8.716;2022-09-16T11:39:52;6.25;;;1.13;;
24567;SDS011;12731;52.182;8.716;2022-09-16T11:48:12;1.95;;;0.63;;
24567;SDS011;12731;52.182;8.716;2022-09-16T12:04:21;6.05;;;1.10;;
24567;SDS011;12731;52.182;8.716;2022-09-16T12:06:54;5.00;;;0.85;;
24567;SDS011;12731;52.182;8.716;2022-09-16T12:12:06;3.13;;;0.85;;
24567;SDS011;12731;52.182;8.716;2022-09-16T12:14:39;4.65;;;1.02;;
24567;SDS011;12731;52.182;8.716;2022-09-16T12:17:11;6.22;;;1.10;;
24567;SDS011;12731;52.182;8.716;2022-09-16T12:19:51;3.50;;;0.85;;
24567;SDS011;12731;52.182;8.716;2022-09-16T12:22:25;2.85;;;0.73;;
24567;SDS011;12731;52.182;8.716;2022-09-16T12:25:06;3.92;;;0.80;;
24567;SDS011;12731;52.182;8.716;2022-09-16T12:27:51;2.33;;;0.60;;
24567;SDS011;12731;52.182;8.716;2022-09-16T12:30:24;2.53;;;0.40;;
24567;SDS011;12731;52.182;8.716;2022-09-16T12:32:56;0.98;;;0.50;;
24567;SDS011;12731;52.182;8.716;2022-09-16T12:38:07;2.03;;;0.40;;
24567;SDS011;12731;52.182;8.716;2022-09-16T12:41:05;1.92;;;0.70;;
24567;SDS011;12731;52.182;8.716;2022-09-16T12:46:47;3.03;;;0.50;;
24567;SDS011;12731;52.182;8.716;2022-09-16T12:49:40;1.00;;;0.60;;
24567;SDS011;12731;52.182;8.716;2022-09-16T12:55:44;3.13;;;0.70;;
24567;SDS011;12731;52.182;8.716;2022-09-16T13:03:36;3.67;;;1.10;;
24567;SDS011;12731;52.182;8.716;2022-09-16T13:06:06;5.05;;;1.20;;
24567;SDS011;12731;52.182;8.716;2022-09-16T13:11:54;4.05;;;1.10;;
24567;SDS011;12731;52.182;8.716;2022-09-16T13:14:46;4.55;;;0.90;;
24567;SDS011;12731;52.182;8.716;2022-09-16T13:17:14;3.85;;;0.90;;
24567;SDS011;12731;52.182;8.716;2022-09-16T13:19:52;4.82;;;1.10;;
24567;SDS011;12731;52.182;8.716;2022-09-16T13:22:25;7.03;;;1.42;;
24567;SDS011;12731;52.182;8.716;2022-09-16T13:25:42;4.20;;;1.00;;
24567;SDS011;12731;52.182;8.716;2022-09-16T13:27:56;2.67;;;1.20;;
24567;SDS011;12731;52.182;8.716;2022-09-16T13:30:34;5.38;;;1.27;;
24567;SDS011;12731;52.182;8.716;2022-09-16T13:35:38;3.97;;;1.15;;
24567;SDS011;12731;52.182;8.716;2022-09-16T13:41:00;7.00;;;1.80;;
24567;SDS011;12731;52.182;8.716;2022-09-16T13:43:34;3.15;;;0.95;;
24567;SDS011;12731;52.182;8.716;2022-09-16T13:46:08;6.88;;;1.10;;
24567;SDS011;12731;52.182;8.716;2022-09-16T13:48:40;5.15;;;1.20;;
24567;SDS011;12731;52.182;8.716;2022-09-16T13:51:12;7.38;;;1.35;;
24567;SDS011;12731;52.182;8.716;2022-09-16T13:53:45;7.70;;;1.30;;
24567;SDS011;12731;52.182;8.716;2022-09-16T13:56:26;4.82;;;1.20;;
24567;SDS011;12731;52.182;8.716;2022-09-16T14:01:52;5.32;;;1.05;;
24567;SDS011;12731;52.182;8.716;2022-09-16T14:15:38;5.03;;;1.02;;
24567;SDS011;12731;52.182;8.716;2022-09-16T14:18:09;3.30;;;1.00;;
24567;SDS011;12731;52.182;8.716;2022-09-16T14:20:38;2.50;;;0.65;;
24567;SDS011;12731;52.182;8.716;2022-09-16T14:23:35;1.65;;;0.60;;
24567;SDS011;12731;52.182;8.716;2022-09-16T14:26:18;5.28;;;0.80;;
24567;SDS011;12731;52.182;8.716;2022-09-16T14:28:48;2.60;;;0.80;;
24567;SDS011;12731;52.182;8.716;2022-09-16T14:31:19;4.28;;;1.00;;
24567;SDS011;12731;52.182;8.716;2022-09-16T14:33:52;5.00;;;0.90;;
24567;SDS011;12731;52.182;8.716;2022-09-16T14:36:23;5.20;;;1.00;;
24567;SDS011;12731;52.182;8.716;2022-09-16T14:38:58;5.03;;;1.38;;
24567;SDS011;12731;52.182;8.716;2022-09-16T14:41:30;4.43;;;1.20;;
24567;SDS011;12731;52.182;8.716;2022-09-16T14:44:17;5.82;;;1.10;;
24567;SDS011;12731;52.182;8.716;2022-09-16T14:46:56;6.03;;;1.15;;
24567;SDS011;12731;52.182;8.716;2022-09-16T14:49:35;8.30;;;1.27;;
24567;SDS011;12731;52.182;8.716;2022-09-16T14:52:02;4.80;;;0.82;;
24567;SDS011;12731;52.182;8.716;2022-09-16T14:54:29;3.08;;;0.75;;
24567;SDS011;12731;52.182;8.716;2022-09-16T14:59:29;5.50;;;0.90;;
24567;SDS011;12731;52.182;8.716;2022-09-16T15:01:58;4.13;;;0.80;;
24567;SDS011;12731;52.182;8.716;2022-09-16T15:04:45;3.05;;;1.00;;
24567;SDS011;12731;52.182;8.716;2022-09-16T15:07:19;3.03;;;0.80;;
24567;SDS011;12731;52.182;8.716;2022-09-16T15:12:19;3.47;;;1.05;;
24567;SDS011;12731;52.182;8.716;2022-09-16T15:14:48;2.75;;;0.60;;
24567;SDS011;12731;52.182;8.716;2022-09-16T15:17:16;2.97;;;0.90;;
24567;SDS011;12731;52.182;8.716;2022-09-16T15:19:57;3.53;;;1.10;;
24567;SDS011;12731;52.182;8.716;2022-09-16T15:22:25;4.72;;;0.88;;
24567;SDS011;12731;52.182;8.716;2022-09-16T15:24:53;4.55;;;1.00;;
24567;SDS011;12731;52.182;8.716;2022-09-16T15:27:25;5.43;;;1.00;;
24567;SDS011;12731;52.182;8.716;2022-09-16T15:29:55;6.53;;;1.27;;
24567;SDS011;12731;52.182;8.716;2022-09-16T15:32:25;4.82;;;0.90;;
24567;SDS011;12731;52.182;8.716;2022-09-16T15:37:36;5.80;;;1.23;;
24567;SDS011;12731;52.182;8.716;2022-09-16T15:40:07;3.53;;;1.20;;
24567;SDS011;12731;52.182;8.716;2022-09-16T15:42:45;6.60;;;1.67;;
24567;SDS011;12731;52.182;8.716;2022-09-16T15:45:14;5.72;;;1.20;;
24567;SDS011;12731;52.182;8.716;2022-09-16T15:47:51;5.05;;;1.25;;
24567;SDS011;12731;52.182;8.716;2022-09-16T15:50:41;4.53;;;1.23;;
24567;SDS011;12731;52.182;8.716;2022-09-16T15:53:16;5.80;;;1.30;;
24567;SDS011;12731;52.182;8.716;2022-09-16T15:58:19;6.05;;;1.20;;
24567;SDS011;12731;52.182;8.716;2022-09-16T16:01:03;4.07;;;0.95;;
24567;SDS011;12731;52.182;8.716;2022-09-16T16:03:36;8.90;;;1.63;;
24567;SDS011;12731;52.182;8.716;2022-09-16T16:06:12;7.30;;;1.58;;
24567;SDS011;12731;52.182;8.716;2022-09-16T16:08:41;3.80;;;1.00;;
24567;SDS011;12731;52.182;8.716;2022-09-16T16:11:13;7.47;;;1.10;;
24567;SDS011;12731;52.182;8.716;2022-09-16T16:13:44;6.60;;;1.40;;
24567;SDS011;12731;52.182;8.716;2022-09-16T16:16:12;5.45;;;1.50;;
24567;SDS011;12731;52.182;8.716;2022-09-16T16:18:40;5.75;;;1.38;;
24567;SDS011;12731;52.182;8.716;2022-09-16T16:21:07;6.15;;;1.40;;
24567;SDS011;12731;52.182;8.716;2022-09-16T16:23:36;8.32;;;1.60;;
24567;SDS011;12731;52.182;8.716;2022-09-16T16:26:03;9.48;;;1.58;;
24567;SDS011;12731;52.182;8.716;2022-09-16T16:28:33;6.43;;;1.25;;
24567;SDS011;12731;52.182;8.716;2022-09-16T16:31:11;6.28;;;1.45;;
24567;SDS011;12731;52.182;8.716;2022-09-16T16:33:45;8.98;;;1.73;;
24567;SDS011;12731;52.182;8.716;2022-09-16T16:36:13;8.65;;;1.67;;
24567;SDS011;12731;52.182;8.716;2022-09-16T16:38:40;8.07;;;1.50;;
24567;SDS011;12731;52.182;8.716;2022-09-16T16:41:07;9.90;;;1.48;;
24567;SDS011;12731;52.182;8.716;2022-09-16T16:43:34;8.73;;;1.88;;
24567;SDS011;12731;52.182;8.716;2022-09-16T16:46:00;9.57;;;1.77;;
24567;SDS011;12731;52.182;8.716;2022-09-16T16:48:27;9.70;;;2.13;;
24567;SDS011;12731;52.182;8.716;2022-09-16T16:50:54;8.30;;;1.60;;
24567;SDS011;12731;52.182;8.716;2022-09-16T16:53:21;7.47;;;1.65;;
24567;SDS011;12731;52.182;8.716;2022-09-16T16:55:48;6.63;;;1.83;;
24567;SDS011;12731;52.182;8.716;2022-09-16T16:58:14;8.05;;;1.67;;
24567;SDS011;12731;52.182;8.716;2022-09-16T17:00:40;12.20;;;1.73;;
24567;SDS011;12731;52.182;8.716;2022-09-16T17:03:07;5.22;;;1.33;;
24567;SDS011;12731;52.182;8.716;2022-09-16T17:05:33;9.90;;;1.58;;
24567;SDS011;12731;52.182;8.716;2022-09-16T17:08:00;8.73;;;1.60;;
24567;SDS011;12731;52.182;8.716;2022-09-16T17:10:26;6.25;;;1.40;;
24567;SDS011;12731;52.182;8.716;2022-09-16T17:12:54;8.35;;;1.45;;
24567;SDS011;12731;52.182;8.716;2022-09-16T17:15:20;7.65;;;1.65;;
24567;SDS011;12731;52.182;8.716;2022-09-16T17:17:47;6.43;;;1.35;;
24567;SDS011;12731;52.182;8.716;2022-09-16T17:20:13;6.25;;;1.48;;
24567;SDS011;12731;52.182;8.716;2022-09-16T17:22:40;6.25;;;1.33;;
24567;SDS011;12731;52.182;8.716;2022-09-16T17:25:06;6.25;;;1.50;;
24567;SDS011;12731;52.182;8.716;2022-09-16T17:27:33;9.70;;;1.50;;
24567;SDS011;12731;52.182;8.716;2022-09-16T17:30:00;7.63;;;2.25;;
24567;SDS011;12731;52.182;8.716;2022-09-16T17:32:27;7.97;;;1.60;;
24567;SDS011;12731;52.182;8.716;2022-09-16T17:34:53;8.40;;;1.80;;
24567;SDS011;12731;52.182;8.716;2022-09-16T17:37:20;7.00;;;1.65;;
24567;SDS011;12731;52.182;8.716;2022-09-16T17:39:46;8.45;;;1.50;;
24567;SDS011;12731;52.182;8.716;2022-09-16T17:42:14;8.32;;;1.75;;
24567;SDS011;12731;52.182;8.716;2022-09-16T17:44:41;11.43;;;1.70;;
24567;SDS011;12731;52.182;8.716;2022-09-16T17:47:07;12.05;;;2.15;;
24567;SDS011;12731;52.182;8.716;2022-09-16T17:49:35;7.50;;;1.58;;
24567;SDS011;12731;52.182;8.716;2022-09-16T17:52:01;11.82;;;2.10;;
24567;SDS011;12731;52.182;8.716;2022-09-16T17:54:28;8.15;;;1.70;;
24567;SDS011;12731;52.182;8.716;2022-09-16T17:56:54;12.23;;;1.88;;
24567;SDS011;12731;52.182;8.716;2022-09-16T17:59:21;13.75;;;2.13;;